Time;durP1;ratioP1;P1;durP2;ratioP2;P2;SDS_P1;SDS_P2;PMS_P1;PMS_P2;Temp;Humidity;BMP_temperature;BMP_pressure;BME280_temperature;BME280_humidity;BME280_pressure;Samples;Min_cycle;Max_cycle;Signal;HPM_P1;HPM_P2
2021/12/05 00:24:11;;;;;;;8.65;1.80;;;4.60;75.10;;;;;;5056052;28;20025;-81
2021/12/05 00:26:38;;;;;;;6.40;1.70;;;4.60;74.70;;;;;;5055946;28;20107;-81
2021/12/05 00:34:49;;;;;;;4.63;1.40;;;4.60;87.10;;;;;;5056219;28;20025;-81
2021/12/05 00:43:06;;;;;;;8.82;1.92;;;4.40;86.70;;;;;;5055057;28;20035;-81
2021/12/05 00:48:33;;;;;;;5.65;1.20;;;4.40;83.30;;;;;;5033965;28;20067;-81
2021/12/05 00:59:29;;;;;;;3.90;1.23;;;4.10;82.20;;;;;;5055698;28;20031;-81
2021/12/05 01:07:40;;;;;;;4.53;1.35;;;4.20;79.00;;;;;;5055626;28;20091;-81
2021/12/05 01:10:15;;;;;;;3.78;1.48;;;4.20;70.60;;;;;;5055382;28;20071;-81
2021/12/05 01:13:01;;;;;;;8.45;1.67;;;4.20;70.70;;;;;;5055306;28;20053;-81
2021/12/05 01:15:29;;;;;;;7.15;1.70;;;4.10;70.50;;;;;;5055360;28;20025;-81
2021/12/05 01:18:04;;;;;;;5.45;1.85;;;4.00;69.00;;;;;;5055150;28;20021;-81
2021/12/05 01:20:39;;;;;;;9.07;1.60;;;4.00;61.50;;;;;;5055050;28;20029;-81
2021/12/05 01:23:18;;;;;;;7.90;2.40;;;4.00;60.60;;;;;;5054879;28;20034;-80
2021/12/05 01:25:51;;;;;;;4.72;1.73;;;3.90;59.30;;;;;;5055013;28;20017;-81
2021/12/05 01:31:53;;;;;;;6.28;2.05;;;3.90;56.40;;;;;;5055144;28;20083;-81
2021/12/05 01:39:12;;;;;;;7.97;1.98;;;3.70;52.70;;;;;;5055118;28;20036;-81
2021/12/05 01:44:38;;;;;;;6.68;2.42;;;3.70;51.90;;;;;;5039459;28;20104;-81
2021/12/05 01:50:09;;;;;;;6.57;1.88;;;3.60;51.00;;;;;;5034719;28;20033;-81
2021/12/05 01:58:15;;;;;;;6.63;2.33;;;3.60;40.50;;;;;;5034507;28;20116;-80
2021/12/05 02:01:06;;;;;;;8.07;2.25;;;3.60;39.20;;;;;;5051132;28;20120;-81
2021/12/05 02:12:20;;;;;;;9.55;2.55;;;3.60;35.30;;;;;;5054360;28;20036;-81
2021/12/05 02:34:36;;;;;;;9.45;3.67;;;4.20;27.80;;;;;;5033661;28;20040;-81
2021/12/05 02:42:12;;;;;;;10.63;4.43;;;4.40;19.90;;;;;;5054035;28;20033;-80
2021/12/05 02:44:38;;;;;;;9.27;3.25;;;4.50;16.40;;;;;;5069225;28;20033;-81
2021/12/05 02:47:21;;;;;;;10.30;2.95;;;4.50;17.10;;;;;;5053527;28;20017;-81
2021/12/05 02:49:50;;;;;;;9.20;4.07;;;4.50;20.50;;;;;;5053679;28;20028;-80
2021/12/05 02:52:24;;;;;;;12.93;3.92;;;4.50;19.60;;;;;;5053479;28;20052;-80
2021/12/05 02:54:55;;;;;;;11.95;3.38;;;4.60;23.40;;;;;;5053749;28;20447;-81
2021/12/05 02:58:13;;;;;;;10.60;3.58;;;4.60;22.40;;;;;;5053556;28;20029;-81
2021/12/05 03:00:34;;;;;;;11.85;3.90;;;4.60;21.90;;;;;;5045038;28;20041;-81
2021/12/05 03:03:00;;;;;;;9.88;4.10;;;4.70;26.50;;;;;;5053763;28;20021;-80
2021/12/05 03:05:25;;;;;;;15.32;4.43;;;4.70;27.30;;;;;;5053411;28;20025;-80
2021/12/05 03:07:57;;;;;;;13.65;4.57;;;4.70;26.80;;;;;;5072400;28;20036;-81
2021/12/05 03:10:23;;;;;;;14.43;4.28;;;4.70;28.30;;;;;;5057507;28;20029;-81
2021/12/05 03:12:49;;;;;;;15.98;5.50;;;4.70;29.50;;;;;;5057048;28;20025;-81
2021/12/05 03:15:17;;;;;;;9.57;4.75;;;4.60;34.00;;;;;;5057437;28;20028;-81
2021/12/05 03:17:43;;;;;;;19.90;5.72;;;4.50;35.70;;;;;;5057279;28;20056;-81
2021/12/05 03:20:11;;;;;;;16.63;5.63;;;4.50;36.30;;;;;;5056963;28;20059;-81
2021/12/05 03:22:36;;;;;;;14.70;4.95;;;4.30;42.50;;;;;;5057343;28;20021;-81
2021/12/05 03:25:04;;;;;;;11.32;4.53;;;4.20;43.20;;;;;;5072580;28;20023;-81
2021/12/05 03:27:30;;;;;;;14.48;5.85;;;4.10;41.90;;;;;;5056936;28;20115;-80
2021/12/05 03:29:56;;;;;;;11.95;5.03;;;4.00;39.00;;;;;;5057088;28;20044;-80
2021/12/05 03:32:23;;;;;;;11.63;5.30;;;4.00;34.50;;;;;;5045450;28;20022;-80
2021/12/05 03:35:06;;;;;;;13.50;5.45;;;3.80;35.10;;;;;;5070897;28;20446;-80
2021/12/05 03:37:31;;;;;;;17.75;5.20;;;3.70;41.60;;;;;;5071106;28;20033;-81
2021/12/05 03:39:58;;;;;;;11.75;5.28;;;3.50;41.20;;;;;;5071230;28;20029;-80
2021/12/05 03:42:24;;;;;;;15.48;5.85;;;3.50;36.30;;;;;;5071139;28;20032;-80
2021/12/05 03:44:50;;;;;;;15.70;5.60;;;3.50;34.30;;;;;;5071049;28;20104;-80
2021/12/05 03:47:18;;;;;;;13.82;5.32;;;3.60;36.90;;;;;;5069777;28;20392;-80
2021/12/05 03:49:44;;;;;;;14.23;5.63;;;3.60;38.00;;;;;;5066522;28;20040;-80
2021/12/05 03:52:13;;;;;;;12.75;5.57;;;3.60;35.10;;;;;;5051245;28;20381;-80
2021/12/05 03:54:39;;;;;;;13.15;5.13;;;3.40;33.90;;;;;;5050874;28;20167;-80
2021/12/05 03:57:06;;;;;;;14.32;5.47;;;3.40;32.70;;;;;;5050647;28;20030;-80
2021/12/05 03:59:32;;;;;;;12.25;5.55;;;3.30;30.30;;;;;;5050935;28;20053;-80
2021/12/05 04:02:01;;;;;;;13.73;5.00;;;3.20;27.90;;;;;;5050710;28;20029;-80
2021/12/05 04:04:26;;;;;;;12.13;5.00;;;3.10;26.40;;;;;;5052327;28;20469;-80
2021/12/05 04:06:53;;;;;;;15.15;5.78;;;3.10;24.70;;;;;;5071040;28;20103;-80
2021/12/05 04:09:20;;;;;;;11.57;5.00;;;3.10;24.40;;;;;;5069445;28;20025;-80
2021/12/05 04:11:57;;;;;;;17.05;6.18;;;3.10;23.20;;;;;;5070500;28;20591;-81
2021/12/05 04:14:24;;;;;;;14.00;5.25;;;3.10;21.70;;;;;;5070633;28;20031;-80
2021/12/05 04:16:49;;;;;;;11.95;5.55;;;3.10;23.60;;;;;;5070214;28;20033;-80
2021/12/05 04:19:15;;;;;;;12.93;5.88;;;3.00;20.80;;;;;;5070232;28;20031;-80
2021/12/05 04:25:09;;;;;;;21.15;5.63;;;3.10;21.10;;;;;;5070338;28;20032;-80
2021/12/05 04:27:34;;;;;;;20.65;6.80;;;3.10;26.30;;;;;;5070119;28;20035;-80
2021/12/05 04:30:00;;;;;;;11.63;6.07;;;3.10;19.20;;;;;;5069899;28;20025;-80
2021/12/05 04:32:26;;;;;;;16.13;6.18;;;3.10;19.20;;;;;;5068650;28;20024;-81
2021/12/05 04:34:51;;;;;;;15.48;6.78;;;3.30;16.70;;;;;;5070623;28;20044;-80
2021/12/05 04:37:17;;;;;;;17.90;6.15;;;3.20;16.90;;;;;;5069995;28;20032;-81
2021/12/05 04:39:42;;;;;;;21.33;6.20;;;3.10;14.40;;;;;;5070319;28;20069;-80
2021/12/05 04:42:09;;;;;;;18.67;6.75;;;3.10;11.40;;;;;;5070151;28;20052;-80
2021/12/05 04:44:34;;;;;;;19.02;7.00;;;3.20;8.90;;;;;;5067320;28;20056;-80
2021/12/05 04:47:01;;;;;;;15.95;6.43;;;3.10;9.80;;;;;;5056631;28;20025;-80
2021/12/05 04:49:27;;;;;;;16.70;5.97;;;3.20;5.80;;;;;;5056838;28;20026;-80
2021/12/05 04:51:53;;;;;;;21.00;6.30;;;3.30;2.10;;;;;;5056618;28;20065;-80
2021/12/05 04:54:20;;;;;;;15.73;6.55;;;3.20;4.80;;;;;;5056475;28;20064;-80
2021/12/05 04:56:48;;;;;;;19.08;7.35;;;3.10;3.00;;;;;;5056569;28;20079;-80
2021/12/05 04:59:16;;;;;;;19.45;7.05;;;3.00;1.00;;;;;;5056642;28;20025;-80
2021/12/05 05:01:47;;;;;;;20.15;7.07;;;3.10;1.00;;;;;;5056506;28;20020;-81
2021/12/05 05:04:48;;;;;;;25.38;8.18;;;3.10;1.00;;;;;;5056507;28;20437;-80
2021/12/05 05:07:12;;;;;;;24.25;8.00;;;3.20;1.00;;;;;;5055875;28;20503;-80
2021/12/05 05:09:38;;;;;;;24.92;8.07;;;3.10;1.00;;;;;;5056821;28;20021;-80
2021/12/05 05:12:04;;;;;;;21.70;7.82;;;3.20;1.00;;;;;;5056623;28;20025;-81
2021/12/05 05:14:30;;;;;;;21.48;7.50;;;3.30;1.00;;;;;;5056089;28;20040;-80
2021/12/05 05:16:56;;;;;;;18.83;7.47;;;3.30;1.00;;;;;;5056350;28;20147;-80
2021/12/05 05:19:27;;;;;;;24.17;7.45;;;3.40;1.00;;;;;;5056007;28;20090;-80
2021/12/05 05:25:20;;;;;;;20.65;8.45;;;3.40;1.00;;;;;;5055113;28;20062;-80
2021/12/05 05:30:41;;;;;;;17.02;7.50;;;3.10;1.00;;;;;;5056261;28;20086;-80
2021/12/05 05:41:45;;;;;;;20.70;8.60;;;3.10;1.00;;;;;;5055648;28;20036;-80
2021/12/05 05:49:30;;;;;;;29.13;9.25;;;3.40;1.00;;;;;;5055489;28;20088;-80
2021/12/05 05:51:56;;;;;;;25.45;8.80;;;3.40;1.00;;;;;;5055736;28;20031;-80
2021/12/05 05:54:22;;;;;;;30.20;9.63;;;3.40;1.00;;;;;;5055485;28;20685;-80
2021/12/05 05:56:52;;;;;;;27.85;9.82;;;3.40;1.00;;;;;;5054393;28;20025;-80
2021/12/05 05:59:29;;;;;;;22.50;10.07;;;3.40;1.00;;;;;;5055431;28;20082;-80
2021/12/05 06:04:43;;;;;;;28.73;9.77;;;3.50;1.00;;;;;;5054168;28;20083;-80
2021/12/05 06:07:09;;;;;;;27.00;9.98;;;3.50;1.00;;;;;;5055170;28;20029;-80
2021/12/05 06:09:35;;;;;;;27.88;9.65;;;3.50;1.00;;;;;;5055782;28;20014;-81
2021/12/05 06:12:01;;;;;;;24.55;9.20;;;3.60;1.00;;;;;;5055164;28;20032;-80
2021/12/05 06:14:29;;;;;;;26.25;9.95;;;3.60;1.00;;;;;;5055225;28;20472;-81
2021/12/05 06:16:54;;;;;;;23.20;10.10;;;3.60;1.00;;;;;;5055279;28;20025;-80
2021/12/05 06:19:20;;;;;;;27.70;9.48;;;3.60;1.00;;;;;;5054931;28;20087;-80
2021/12/05 06:21:46;;;;;;;22.60;9.30;;;3.60;1.00;;;;;;5054862;28;20036;-80
2021/12/05 06:24:11;;;;;;;24.05;9.50;;;3.50;1.00;;;;;;5054813;28;20032;-81
2021/12/05 06:26:37;;;;;;;17.27;8.95;;;3.50;1.00;;;;;;5054543;28;20465;-80
2021/12/05 06:31:59;;;;;;;20.67;9.38;;;3.40;1.00;;;;;;5054992;28;20439;-80
2021/12/05 06:40:15;;;;;;;20.58;8.18;;;3.20;1.00;;;;;;5054684;28;20025;-80
2021/12/05 06:47:57;;;;;;;20.95;8.32;;;3.20;1.00;;;;;;5055031;28;20375;-80
2021/12/05 06:50:22;;;;;;;19.48;8.90;;;3.30;1.00;;;;;;5054357;28;20017;-80
2021/12/05 06:52:48;;;;;;;21.80;9.20;;;3.40;1.00;;;;;;5053008;28;20388;-80
2021/12/05 06:55:15;;;;;;;23.58;8.80;;;3.40;1.00;;;;;;5054496;28;20028;-80
2021/12/05 06:57:42;;;;;;;21.42;9.00;;;3.30;1.00;;;;;;5053074;28;20102;-81
2021/12/05 07:00:12;;;;;;;16.23;8.32;;;3.30;1.00;;;;;;5046390;28;20029;-81
2021/12/05 07:02:37;;;;;;;15.40;8.50;;;3.40;1.00;;;;;;5054388;28;20028;-80
2021/12/05 07:07:33;;;;;;;17.33;8.27;;;3.30;1.00;;;;;;5049048;28;20049;-80
2021/12/05 07:10:00;;;;;;;21.05;8.60;;;3.40;1.00;;;;;;5049988;28;20087;-80
2021/12/05 07:20:42;;;;;;;21.42;9.82;;;3.50;1.00;;;;;;5034043;28;20026;-80
2021/12/05 07:23:38;;;;;;;22.23;9.85;;;3.50;1.00;;;;;;5034252;28;20028;-80
2021/12/05 07:26:16;;;;;;;21.05;8.65;;;3.40;6.70;;;;;;5033716;28;20028;-80
2021/12/05 07:42:25;;;;;;;22.65;9.55;;;3.50;11.00;;;;;;5047342;28;20068;-80
2021/12/05 07:44:53;;;;;;;16.95;8.77;;;3.50;13.70;;;;;;5053654;28;20028;-80
2021/12/05 07:47:20;;;;;;;21.45;8.52;;;3.50;12.40;;;;;;5053404;28;20028;-80
2021/12/05 07:49:48;;;;;;;25.42;10.70;;;3.50;13.60;;;;;;5053726;28;20025;-80
2021/12/05 07:52:18;;;;;;;20.98;9.85;;;3.40;15.20;;;;;;5053409;28;20021;-80
2021/12/05 07:54:49;;;;;;;24.45;10.23;;;3.50;16.90;;;;;;5053656;28;20119;-80
2021/12/05 07:57:27;;;;;;;17.98;8.82;;;3.50;19.80;;;;;;5052162;28;20469;-81
2021/12/05 08:00:15;;;;;;;18.42;8.52;;;3.50;24.40;;;;;;5051849;28;20499;-80
2021/12/05 08:16:27;;;;;;;18.17;9.57;;;3.80;58.40;;;;;;5039583;28;20033;-80
2021/12/05 08:18:53;;;;;;;23.60;9.70;;;3.80;64.40;;;;;;5035665;28;20025;-80
2021/12/05 08:21:18;;;;;;;25.73;10.70;;;3.90;67.00;;;;;;5056280;28;20375;-81
2021/12/05 08:23:46;;;;;;;22.63;8.75;;;3.90;69.70;;;;;;5048864;28;21007;-81
2021/12/05 08:26:18;;;;;;;18.45;8.40;;;4.00;73.50;;;;;;5047506;28;20028;-80
2021/12/05 08:31:32;;;;;;;19.42;7.38;;;4.10;86.00;;;;;;5045825;28;20030;-81
2021/12/05 08:42:08;;;;;;;26.17;6.78;;;4.40;99.90;;;;;;5057561;28;20033;-81
2021/12/05 09:20:42;;;;;;;19.92;7.13;;;5.20;95.40;;;;;;5036290;28;20082;-81
2021/12/05 09:28:19;;;;;;;19.67;7.60;;;5.10;1.00;;;;;;5044692;28;20031;-81
2021/12/05 10:15:13;;;;;;;20.15;8.70;;;5.30;1.00;;;;;;5053243;28;20035;-79
2021/12/05 10:37:45;;;;;;;21.48;8.35;;;5.30;1.00;;;;;;5052478;28;20505;-77
2021/12/05 10:40:18;;;;;;;17.75;8.23;;;5.20;1.00;;;;;;5052945;28;20079;-78
2021/12/05 10:42:47;;;;;;;17.23;7.22;;;5.20;1.00;;;;;;5052341;28;20052;-77
2021/12/05 10:45:30;;;;;;;17.88;7.43;;;5.10;1.00;;;;;;5052343;28;20017;-78
2021/12/05 10:48:03;;;;;;;20.60;8.88;;;5.20;1.00;;;;;;5052275;28;20020;-77
2021/12/05 10:50:36;;;;;;;25.08;8.73;;;5.30;1.00;;;;;;5052587;28;20057;-77
2021/12/05 10:53:20;;;;;;;23.23;9.00;;;5.30;1.00;;;;;;5052565;28;20014;-77
2021/12/05 10:55:57;;;;;;;16.08;8.27;;;5.40;1.00;;;;;;5051868;28;20025;-77
2021/12/05 10:58:28;;;;;;;26.42;8.80;;;5.30;99.90;;;;;;5040825;28;20025;-77
2021/12/05 11:01:13;;;;;;;17.08;7.75;;;5.20;99.90;;;;;;5037197;28;20474;-77
2021/12/05 11:03:40;;;;;;;17.88;8.02;;;5.20;99.90;;;;;;5049061;28;20029;-77
2021/12/05 11:06:22;;;;;;;27.10;8.45;;;5.20;99.90;;;;;;5046943;28;20021;-78
2021/12/05 11:08:53;;;;;;;18.30;8.07;;;5.20;1.00;;;;;;5042600;28;20021;-77
2021/12/05 11:11:19;;;;;;;21.23;8.50;;;5.10;99.90;;;;;;5039892;28;20033;-79
2021/12/05 11:13:45;;;;;;;19.10;7.75;;;5.20;1.00;;;;;;5039119;28;20469;-78
2021/12/05 11:16:36;;;;;;;18.00;9.43;;;5.20;1.00;;;;;;5033993;28;20470;-78
2021/12/05 11:19:18;;;;;;;18.08;7.70;;;5.10;1.00;;;;;;5035186;28;20108;-78
2021/12/05 11:21:50;;;;;;;17.23;8.45;;;5.10;1.00;;;;;;5035173;28;20207;-78
2021/12/05 11:24:21;;;;;;;19.02;8.55;;;5.10;1.00;;;;;;5038298;28;20036;-78
2021/12/05 11:27:22;;;;;;;18.85;8.02;;;5.10;1.00;;;;;;5037473;28;20095;-78
2021/12/05 11:29:54;;;;;;;23.17;8.80;;;5.10;1.00;;;;;;5042523;28;20064;-78
2021/12/05 11:32:28;;;;;;;17.40;8.13;;;5.10;1.00;;;;;;5041490;28;20393;-78
2021/12/05 11:34:54;;;;;;;22.77;8.68;;;5.10;1.00;;;;;;5036831;28;20409;-78
2021/12/05 11:37:19;;;;;;;19.35;9.27;;;5.10;1.00;;;;;;5038885;28;20473;-78
2021/12/05 11:39:46;;;;;;;17.48;8.52;;;5.10;1.00;;;;;;5045392;28;20025;-78
2021/12/05 11:42:18;;;;;;;19.70;8.65;;;5.10;1.00;;;;;;5037910;28;20013;-78
2021/12/05 11:44:46;;;;;;;17.67;7.90;;;5.10;99.90;;;;;;5043024;28;20025;-78
2021/12/05 11:47:18;;;;;;;19.05;9.00;;;5.10;1.00;;;;;;5037196;28;20060;-77
2021/12/05 11:49:44;;;;;;;19.55;9.23;;;5.10;1.00;;;;;;5039721;28;20067;-77
2021/12/05 11:52:11;;;;;;;18.77;8.70;;;5.10;1.00;;;;;;5036350;28;20026;-78
2021/12/05 11:54:42;;;;;;;21.95;9.65;;;5.10;1.00;;;;;;5044228;28;20126;-78
2021/12/05 11:57:16;;;;;;;19.10;9.13;;;5.10;1.00;;;;;;5055220;28;20112;-78
2021/12/05 11:59:44;;;;;;;16.75;9.02;;;5.10;1.00;;;;;;5037093;28;20028;-78
2021/12/05 12:02:35;;;;;;;20.88;9.45;;;5.10;1.00;;;;;;5046416;28;20034;-78
2021/12/05 12:05:06;;;;;;;;;;;5.10;1.00;;;;;;5040330;28;20524;-78
2021/12/05 12:07:36;;;;;;;16.95;8.65;;;5.10;1.00;;;;;;5037059;28;19905;-78
2021/12/05 12:10:16;;;;;;;;;;;5.10;1.00;;;;;;5041036;28;20118;-78
2021/12/05 12:12:49;;;;;;;18.43;7.97;;;5.10;1.00;;;;;;5039402;28;19909;-78
2021/12/05 12:15:16;;;;;;;17.70;7.43;;;5.10;1.00;;;;;;5044679;28;20104;-77
2021/12/05 12:17:44;;;;;;;19.92;8.02;;;5.20;1.00;;;;;;5037331;28;20017;-79
2021/12/05 12:20:12;;;;;;;18.45;8.70;;;5.20;1.00;;;;;;5041217;28;20100;-78
2021/12/05 12:22:39;;;;;;;20.15;9.25;;;5.30;1.00;;;;;;5039607;28;20018;-78
2021/12/05 12:25:14;;;;;;;18.10;8.13;;;5.20;1.00;;;;;;5039042;28;20036;-78
2021/12/05 12:27:43;;;;;;;16.85;7.78;;;5.30;1.00;;;;;;5045703;28;20029;-78
2021/12/05 12:30:10;;;;;;;13.15;7.72;;;5.30;1.00;;;;;;5038397;28;20014;-78
2021/12/05 12:32:42;;;;;;;17.05;8.18;;;5.30;1.00;;;;;;5038448;28;20021;-78
2021/12/05 12:35:10;;;;;;;17.52;8.57;;;5.40;1.00;;;;;;5039015;28;20052;-79
2021/12/05 12:37:54;;;;;;;18.63;9.77;;;5.40;1.00;;;;;;5035904;28;20021;-78
2021/12/05 12:40:37;;;;;;;18.02;8.55;;;5.30;99.90;;;;;;5034495;28;20465;-78
2021/12/05 12:43:04;;;;;;;17.58;9.27;;;5.30;99.90;;;;;;5054331;28;20081;-79
2021/12/05 12:45:40;;;;;;;11.80;5.80;;;5.50;99.90;;;;;;5043701;28;20025;-78
2021/12/05 12:48:11;;;;;;;17.08;7.22;;;5.40;99.90;;;;;;5042656;28;20025;-77
2021/12/05 12:50:52;;;;;;;15.38;7.25;;;5.40;99.90;;;;;;5043181;28;20054;-78
2021/12/05 12:53:23;;;;;;;17.33;7.20;;;5.40;99.90;;;;;;5040369;28;20041;-78
2021/12/05 12:55:53;;;;;;;17.08;7.38;;;5.40;99.90;;;;;;5041360;28;20020;-78
2021/12/05 12:58:49;;;;;;;15.55;7.65;;;5.40;99.90;;;;;;5041964;28;20026;-77
2021/12/05 13:01:49;;;;;;;15.00;7.07;;;5.50;99.90;;;;;;5038370;28;20039;-78
2021/12/05 13:10:09;;;;;;;13.98;6.38;;;5.50;99.90;;;;;;5039888;28;20071;-78
2021/12/05 13:12:44;;;;;;;14.30;6.88;;;5.50;99.90;;;;;;5047726;28;20373;-78
2021/12/05 13:15:16;;;;;;;11.40;6.78;;;5.50;99.90;;;;;;5044642;28;20472;-78
2021/12/05 13:17:48;;;;;;;14.27;6.85;;;5.50;99.90;;;;;;5038314;28;20576;-78
2021/12/05 13:20:18;;;;;;;14.43;6.75;;;5.40;99.90;;;;;;5042076;28;20083;-78
2021/12/05 13:23:02;;;;;;;15.15;7.13;;;5.50;99.90;;;;;;5039675;28;20029;-78
2021/12/05 13:25:30;;;;;;;15.82;7.15;;;5.50;99.90;;;;;;5039747;28;20028;-78
2021/12/05 13:27:57;;;;;;;14.82;6.28;;;5.50;99.90;;;;;;5036609;28;20030;-77
2021/12/05 13:30:34;;;;;;;11.85;6.18;;;5.50;99.90;;;;;;5045373;28;20013;-78
2021/12/05 13:33:18;;;;;;;13.65;6.65;;;5.50;99.90;;;;;;5032771;28;20057;-78
2021/12/05 13:35:45;;;;;;;14.07;6.50;;;5.50;99.90;;;;;;5034316;28;20017;-78
2021/12/05 13:38:39;;;;;;;11.02;5.50;;;5.50;99.90;;;;;;5034778;28;20017;-77
2021/12/05 13:41:15;;;;;;;13.48;7.35;;;5.50;99.90;;;;;;5036255;28;20029;-77
2021/12/05 13:43:41;;;;;;;10.98;6.38;;;5.50;99.90;;;;;;5034987;28;20029;-78
2021/12/05 13:46:30;;;;;;;14.05;6.82;;;5.70;99.90;;;;;;5033159;28;20030;-77
2021/12/05 13:48:57;;;;;;;11.32;6.70;;;5.70;99.90;;;;;;5032775;28;20094;-77
2021/12/05 13:51:25;;;;;;;14.38;7.25;;;5.80;99.90;;;;;;5053344;28;20021;-77
2021/12/05 13:53:55;;;;;;;13.15;6.35;;;5.90;99.90;;;;;;5053080;28;20029;-77
2021/12/05 13:56:26;;;;;;;11.30;6.55;;;6.00;99.90;;;;;;5053049;28;20067;-77
2021/12/05 13:59:04;;;;;;;17.10;6.93;;;6.00;99.90;;;;;;5051852;28;20083;-77
2021/12/05 14:01:43;;;;;;;12.68;6.90;;;6.00;99.90;;;;;;5052956;28;20255;-77
2021/12/05 14:04:23;;;;;;;12.45;6.65;;;6.00;99.90;;;;;;5054512;28;20103;-78
2021/12/05 14:07:02;;;;;;;10.57;5.57;;;6.10;99.90;;;;;;5053095;28;20044;-77
2021/12/05 14:09:40;;;;;;;12.20;5.93;;;6.00;99.90;;;;;;5052813;28;20493;-77
2021/12/05 14:12:06;;;;;;;13.50;6.07;;;5.90;99.90;;;;;;5053035;28;20404;-77
2021/12/05 14:15:04;;;;;;;10.60;5.90;;;5.90;99.90;;;;;;5052487;28;20037;-78
2021/12/05 14:17:37;;;;;;;13.05;6.30;;;5.90;99.90;;;;;;5052081;28;20055;-77
2021/12/05 14:20:12;;;;;;;12.13;5.53;;;5.90;99.90;;;;;;5052888;28;20044;-78
2021/12/05 14:22:39;;;;;;;15.98;6.90;;;5.90;99.90;;;;;;5052773;28;20488;-77
2021/12/05 14:25:09;;;;;;;12.85;6.60;;;5.90;99.90;;;;;;5052719;28;20035;-78
2021/12/05 14:27:41;;;;;;;11.52;6.10;;;5.80;99.90;;;;;;5052568;28;20025;-77
2021/12/05 14:30:10;;;;;;;10.43;5.65;;;5.90;99.90;;;;;;5052588;28;20021;-77
2021/12/05 14:32:42;;;;;;;14.45;5.57;;;5.80;99.90;;;;;;5052426;28;20025;-77
2021/12/05 14:35:11;;;;;;;14.05;5.88;;;5.80;99.90;;;;;;5052607;28;20130;-77
2021/12/05 14:37:41;;;;;;;10.30;5.95;;;5.80;99.90;;;;;;5052573;28;20138;-78
2021/12/05 14:40:09;;;;;;;11.35;5.43;;;5.80;99.90;;;;;;5052157;28;20370;-77
2021/12/05 14:42:38;;;;;;;11.20;6.07;;;5.80;99.90;;;;;;5053699;28;20025;-77
2021/12/05 14:45:09;;;;;;;17.35;6.47;;;5.80;99.90;;;;;;5054789;28;20465;-77
2021/12/05 14:47:36;;;;;;;12.73;6.18;;;5.70;99.90;;;;;;5054833;28;20113;-77
2021/12/05 14:50:12;;;;;;;11.98;5.80;;;5.70;99.90;;;;;;5050339;28;20133;-77
2021/12/05 14:52:39;;;;;;;11.77;6.65;;;5.60;99.90;;;;;;5042260;28;20488;-78
2021/12/05 14:55:08;;;;;;;11.15;6.10;;;5.70;99.90;;;;;;5043125;28;20051;-77
2021/12/05 14:57:45;;;;;;;14.27;7.38;;;5.60;99.90;;;;;;5037947;28;20021;-78
2021/12/05 15:00:18;;;;;;;12.50;7.45;;;5.60;99.90;;;;;;5045438;28;20024;-79
2021/12/05 15:02:44;;;;;;;13.23;6.93;;;5.60;99.90;;;;;;5038043;28;20025;-79
2021/12/05 15:05:13;;;;;;;14.30;7.70;;;5.50;99.90;;;;;;5048133;28;20033;-79
2021/12/05 15:07:39;;;;;;;12.57;6.93;;;5.50;99.90;;;;;;5036997;28;20021;-79
2021/12/05 15:10:06;;;;;;;13.35;7.00;;;5.50;99.90;;;;;;5043709;28;20028;-79
2021/12/05 15:12:34;;;;;;;15.15;7.30;;;5.50;99.90;;;;;;5048397;28;20021;-79
2021/12/05 15:15:06;;;;;;;12.73;7.90;;;5.40;99.90;;;;;;5040003;28;20061;-79
2021/12/05 15:17:34;;;;;;;13.45;7.28;;;5.40;99.90;;;;;;5045585;28;20024;-79
2021/12/05 15:20:08;;;;;;;15.25;7.18;;;5.40;99.90;;;;;;5040075;28;20112;-80
2021/12/05 15:22:34;;;;;;;18.55;8.52;;;5.30;99.90;;;;;;5041750;28;20064;-80
2021/12/05 15:25:05;;;;;;;14.00;8.43;;;5.30;99.90;;;;;;5040556;28;20479;-80
2021/12/05 15:27:33;;;;;;;17.60;8.32;;;5.30;99.90;;;;;;5036894;28;20100;-79
2021/12/05 15:30:06;;;;;;;11.60;5.80;;;5.30;99.90;;;;;;5031597;28;20029;-80
2021/12/05 15:32:32;;;;;;;9.15;6.05;;;5.30;99.90;;;;;;5042272;28;20025;-79
2021/12/05 15:35:18;;;;;;;15.30;6.32;;;5.30;99.90;;;;;;5038574;28;20096;-79
2021/12/05 15:38:08;;;;;;;11.20;5.45;;;5.20;99.90;;;;;;5036717;28;20433;-79
2021/12/05 15:40:36;;;;;;;11.85;6.65;;;5.20;99.90;;;;;;5032416;28;20037;-79
2021/12/05 15:43:06;;;;;;;13.43;6.05;;;5.20;99.90;;;;;;5047920;28;20071;-79
2021/12/05 15:45:33;;;;;;;9.55;5.43;;;5.20;99.90;;;;;;5034582;28;20492;-79
2021/12/05 15:47:59;;;;;;;13.68;7.00;;;5.20;99.90;;;;;;5039974;28;20497;-78
2021/12/05 15:50:28;;;;;;;17.70;6.90;;;5.20;99.90;;;;;;5036013;28;20037;-79
2021/12/05 15:52:56;;;;;;;12.03;5.60;;;5.20;99.90;;;;;;5034768;28;20075;-79
2021/12/05 15:55:25;;;;;;;13.55;6.57;;;5.20;99.90;;;;;;5032414;28;20041;-79
2021/12/05 15:58:01;;;;;;;16.85;7.60;;;5.20;99.90;;;;;;5031224;28;20397;-79
2021/12/05 16:00:31;;;;;;;11.98;6.68;;;5.20;1.00;;;;;;5031575;28;20033;-79
2021/12/05 16:02:59;;;;;;;;;;;5.10;1.00;;;;;;5031732;28;20021;-80
2021/12/05 16:05:25;;;;;;;11.40;5.78;;;5.10;1.00;;;;;;5031152;28;19909;-80
2021/12/05 16:07:51;;;;;;;14.93;6.88;;;5.10;1.00;;;;;;5036704;28;20068;-80
2021/12/05 16:10:23;;;;;;;10.75;5.65;;;5.10;1.00;;;;;;5038031;28;20052;-80
2021/12/05 16:12:52;;;;;;;11.73;5.90;;;5.10;1.00;;;;;;5031431;28;20071;-80
2021/12/05 16:15:19;;;;;;;15.50;7.25;;;5.10;1.00;;;;;;5042510;28;20025;-80
2021/12/05 16:17:59;;;;;;;12.73;6.28;;;5.10;99.90;;;;;;5039487;28;20100;-80
2021/12/05 16:20:40;;;;;;;12.15;6.95;;;5.10;1.00;;;;;;5034066;28;20535;-80
2021/12/05 16:23:17;;;;;;;9.77;4.82;;;5.20;1.00;;;;;;5031332;28;20044;-80
2021/12/05 16:26:04;;;;;;;26.48;10.00;;;5.10;1.00;;;;;;5031433;28;20025;-80
2021/12/05 16:28:37;;;;;;;15.77;6.90;;;5.10;1.00;;;;;;5036727;28;20017;-80
2021/12/05 16:31:14;;;;;;;10.13;5.55;;;5.10;1.00;;;;;;5030403;28;20112;-80
2021/12/05 16:33:43;;;;;;;15.85;7.80;;;5.10;1.00;;;;;;5030951;28;20056;-80
2021/12/05 16:36:09;;;;;;;16.85;7.10;;;5.10;1.00;;;;;;5031371;28;20022;-81
2021/12/05 16:38:48;;;;;;;15.27;7.03;;;5.20;1.00;;;;;;5031150;28;20029;-80
2021/12/05 16:41:28;;;;;;;16.45;7.97;;;5.10;1.00;;;;;;5040273;28;20388;-80
2021/12/05 16:43:57;;;;;;;15.20;7.65;;;5.10;1.00;;;;;;5052908;28;20087;-81
2021/12/05 16:46:25;;;;;;;12.90;6.57;;;5.10;1.00;;;;;;5054616;28;20025;-81
2021/12/05 16:48:52;;;;;;;13.40;6.72;;;5.10;1.00;;;;;;5054148;28;20056;-80
2021/12/05 16:51:25;;;;;;;14.73;6.95;;;5.10;1.00;;;;;;5054389;28;20100;-80
2021/12/05 16:53:58;;;;;;;13.55;7.28;;;5.20;1.00;;;;;;5054137;28;20078;-80
2021/12/05 16:56:46;;;;;;;13.63;7.03;;;5.10;1.00;;;;;;5054672;28;20033;-80
2021/12/05 16:59:38;;;;;;;16.55;7.38;;;5.20;1.00;;;;;;5048829;28;20373;-81
2021/12/05 17:02:13;;;;;;;17.60;8.10;;;5.10;1.00;;;;;;5034425;28;20156;-80
2021/12/05 17:05:03;;;;;;;18.65;7.72;;;5.10;1.00;;;;;;5046804;28;20426;-80
2021/12/05 17:07:56;;;;;;;14.30;7.17;;;5.10;1.00;;;;;;5054558;28;20063;-80
2021/12/05 17:10:25;;;;;;;12.93;5.70;;;5.10;1.00;;;;;;5038364;28;20022;-80
2021/12/05 17:13:09;;;;;;;14.23;8.00;;;5.10;1.00;;;;;;5037585;28;20018;-80
2021/12/05 17:15:37;;;;;;;18.08;7.20;;;5.10;1.00;;;;;;5040403;28;20507;-80
2021/12/05 17:18:12;;;;;;;17.13;7.90;;;5.10;1.00;;;;;;5039322;28;20040;-80
2021/12/05 17:20:48;;;;;;;20.63;8.48;;;5.10;1.00;;;;;;5033337;28;20040;-80
2021/12/05 17:23:30;;;;;;;18.42;9.10;;;5.10;1.00;;;;;;5036987;28;20378;-80
2021/12/05 17:26:06;;;;;;;18.10;8.77;;;5.10;1.00;;;;;;5033204;28;20040;-80
2021/12/05 17:28:39;;;;;;;30.10;11.75;;;5.10;1.00;;;;;;5033199;28;20029;-80
2021/12/05 17:31:09;;;;;;;24.83;10.05;;;5.10;1.00;;;;;;5033571;28;20065;-80
2021/12/05 17:33:47;;;;;;;22.83;10.23;;;5.10;1.00;;;;;;5053303;28;20115;-80
2021/12/05 17:36:28;;;;;;;21.05;8.88;;;5.10;1.00;;;;;;5050579;28;20033;-80
2021/12/05 17:39:00;;;;;;;15.95;7.22;;;5.10;1.00;;;;;;5041747;28;20028;-80
2021/12/05 17:41:29;;;;;;;22.52;9.75;;;5.10;1.00;;;;;;5054406;28;20021;-80
2021/12/05 17:43:55;;;;;;;19.63;9.60;;;5.10;1.00;;;;;;5050114;28;20096;-79
2021/12/05 17:46:21;;;;;;;26.10;11.57;;;5.10;1.00;;;;;;5038896;28;20049;-81
2021/12/05 17:48:47;;;;;;;25.00;9.10;;;5.10;1.00;;;;;;5035656;28;20022;-81
2021/12/05 17:51:12;;;;;;;14.57;7.82;;;5.10;1.00;;;;;;5035666;28;20033;-81
2021/12/05 17:53:40;;;;;;;23.40;10.60;;;5.10;1.00;;;;;;5035520;28;20045;-80
2021/12/05 17:56:15;;;;;;;26.02;11.75;;;5.10;1.00;;;;;;5037758;28;20029;-80
2021/12/05 18:03:56;;;;;;;16.60;8.82;;;5.00;1.00;;;;;;5054634;28;20082;-80
2021/12/05 18:06:22;;;;;;;25.15;9.75;;;5.00;1.00;;;;;;5049022;28;20100;-80
2021/12/05 18:08:49;;;;;;;14.25;7.30;;;5.10;1.00;;;;;;5043522;28;20448;-81
2021/12/05 18:11:21;;;;;;;20.45;10.75;;;5.00;1.00;;;;;;5036116;28;20036;-81
2021/12/05 18:13:52;;;;;;;23.23;9.40;;;5.00;1.00;;;;;;5035175;28;20033;-81
2021/12/05 18:16:23;;;;;;;22.48;10.55;;;5.10;1.00;;;;;;5037379;28;20036;-80
2021/12/05 18:18:51;;;;;;;20.63;9.35;;;5.00;1.00;;;;;;5040504;28;20033;-80
2021/12/05 18:21:18;;;;;;;26.45;11.80;;;5.00;1.00;;;;;;5043030;28;20017;-80
2021/12/05 18:23:44;;;;;;;31.65;13.35;;;5.00;1.00;;;;;;5053015;28;20028;-81
2021/12/05 18:26:11;;;;;;;27.35;12.50;;;5.00;1.00;;;;;;5046321;28;20025;-80